Time;durP1;ratioP1;P1;durP2;ratioP2;P2;SDS_P1;SDS_P2;PMS_P1;PMS_P2;Temp;Humidity;BMP_temperature;BMP_pressure;BME280_temperature;BME280_humidity;BME280_pressure;Samples;Min_cycle;Max_cycle;Signal;HPM_P1;HPM_P2
2021/05/20 00:01:15;;;;;;;75.75;32.95;;;;;;;7.28;92.30;102271.66;4998235;28;20350;-74
2021/05/20 00:03:42;;;;;;;74.25;31.35;;;;;;;7.20;91.52;102270.72;5004706;28;20455;-74
2021/05/20 00:06:10;;;;;;;83.78;35.13;;;;;;;7.17;91.70;102274.25;4998424;28;20066;-73
2021/05/20 00:08:37;;;;;;;78.07;33.08;;;;;;;7.11;91.70;102269.78;5001415;28;20067;-73
2021/05/20 00:11:04;;;;;;;78.32;33.78;;;;;;;7.09;91.94;102266.25;4997165;28;20097;-73
2021/05/20 00:13:32;;;;;;;89.75;36.15;;;;;;;7.08;92.06;102268.91;5005016;28;20073;-73
2021/05/20 00:15:59;;;;;;;81.63;35.05;;;;;;;7.03;91.82;102276.84;4998484;28;20057;-73
2021/05/20 00:18:27;;;;;;;77.22;33.58;;;;;;;6.99;91.84;102268.84;5007588;28;20060;-75
2021/05/20 00:20:54;;;;;;;77.78;32.08;;;;;;;6.93;91.93;102269.72;4999454;28;20511;-74
2021/05/20 00:23:21;;;;;;;84.97;36.92;;;;;;;6.91;92.00;102274.09;5004099;28;20061;-73
2021/05/20 00:25:48;;;;;;;80.75;34.03;;;;;;;6.87;92.23;102270.56;4998521;28;20066;-74
2021/05/20 00:28:16;;;;;;;77.65;33.13;;;;;;;6.85;91.85;102282.03;5003173;28;20625;-75
2021/05/20 00:30:44;;;;;;;71.50;31.15;;;;;;;6.82;92.31;102290.84;4998593;28;20061;-76
2021/05/20 00:33:11;;;;;;;78.90;35.08;;;;;;;6.80;92.21;102294.41;5002227;28;20137;-77
2021/05/20 00:35:38;;;;;;;81.70;32.13;;;;;;;6.78;92.18;102293.50;4999273;28;20058;-78
2021/05/20 00:38:09;;;;;;;78.95;33.47;;;;;;;6.76;92.10;102300.53;4999738;28;20085;-76
2021/05/20 00:40:36;;;;;;;81.20;35.50;;;;;;;6.73;92.45;102288.16;5003000;28;20050;-76
2021/05/20 00:43:03;;;;;;;88.68;33.22;;;;;;;6.73;92.44;102281.06;5012304;28;20372;-77
2021/05/20 00:45:30;;;;;;;81.10;34.55;;;;;;;6.70;92.34;102294.31;4998054;28;20429;-78
2021/05/20 00:47:59;;;;;;;83.53;35.55;;;;;;;6.67;92.15;102299.59;4997342;28;20128;-78
2021/05/20 00:50:26;;;;;;;93.65;37.08;;;;;;;6.67;92.84;102283.66;4999550;28;20097;-77
2021/05/20 00:52:54;;;;;;;79.18;34.17;;;;;;;6.65;92.40;102293.38;4997454;28;20060;-78
2021/05/20 00:55:23;;;;;;;76.47;32.67;;;;;;;6.63;92.49;102287.19;5000930;28;20500;-77
2021/05/20 00:57:52;;;;;;;84.50;32.67;;;;;;;6.60;92.40;102294.25;4997642;28;20061;-77
2021/05/20 01:00:24;;;;;;;86.15;37.03;;;;;;;6.59;92.57;102301.31;4997995;28;20088;-76
2021/05/20 01:02:51;;;;;;;79.72;33.97;;;;;;;6.57;92.88;102300.41;4997254;28;20108;-75
2021/05/20 01:05:19;;;;;;;93.40;38.65;;;;;;;6.56;93.46;102303.06;5000946;28;20066;-75
2021/05/20 01:07:46;;;;;;;86.85;34.95;;;;;;;6.55;93.51;102307.47;4996453;28;20470;-75
2021/05/20 01:10:14;;;;;;;104.38;43.15;;;;;;;6.61;94.24;102306.66;5001188;28;20112;-76
2021/05/20 01:12:41;;;;;;;92.20;39.50;;;;;;;6.57;94.04;102308.34;4995586;28;20068;-75
2021/05/20 01:15:22;;;;;;;109.95;43.08;;;;;;;6.60;94.71;102313.69;4998437;28;20066;-76
2021/05/20 01:17:50;;;;;;;102.55;40.97;;;;;;;6.55;94.12;102310.13;4998441;28;20622;-76
2021/05/20 01:20:20;;;;;;;96.68;39.22;;;;;;;6.53;93.67;102310.09;4996441;28;20066;-76
2021/05/20 01:22:48;;;;;;;98.95;43.30;;;;;;;6.52;94.05;102307.44;5000238;28;20062;-75
2021/05/20 01:25:16;;;;;;;98.75;42.17;;;;;;;6.49;93.63;102307.44;4997761;28;20163;-76
2021/05/20 01:27:45;;;;;;;107.95;43.53;;;;;;;6.52;94.29;102321.59;4997820;28;20084;-76
2021/05/20 01:30:14;;;;;;;94.05;39.25;;;;;;;6.46;93.68;102310.94;4996463;28;20057;-75
2021/05/20 01:32:41;;;;;;;107.57;42.50;;;;;;;6.45;93.79;102311.81;4995399;28;20061;-75
2021/05/20 01:35:09;;;;;;;97.13;40.53;;;;;;;6.40;94.20;102309.97;4999189;28;20156;-74
2021/05/20 01:37:37;;;;;;;84.05;38.33;;;;;;;6.34;93.69;102311.72;4997078;28;20093;-74
2021/05/20 01:40:05;;;;;;;87.82;37.53;;;;;;;6.30;93.06;102317.88;4997608;28;20069;-74
2021/05/20 01:42:33;;;;;;;88.35;37.38;;;;;;;6.30;93.73;102315.22;4998801;28;20068;-74
2021/05/20 01:45:00;;;;;;;82.85;35.15;;;;;;;6.25;93.78;102318.69;4995882;28;20066;-77
2021/05/20 01:47:27;;;;;;;97.70;40.42;;;;;;;6.28;93.34;102310.75;4998609;28;20069;-76
2021/05/20 01:49:56;;;;;;;85.22;36.30;;;;;;;6.23;93.41;102308.09;5000396;28;20061;-75
2021/05/20 01:52:23;;;;;;;86.22;36.63;;;;;;;6.23;93.80;102315.13;4993674;28;20064;-74
2021/05/20 01:54:52;;;;;;;94.50;39.50;;;;;;;6.16;93.78;102316.84;4999025;28;20069;-75
2021/05/20 01:57:19;;;;;;;93.25;40.72;;;;;;;6.16;94.29;102317.75;4997565;28;20054;-74
2021/05/20 01:59:46;;;;;;;98.78;41.47;;;;;;;6.15;94.52;102315.06;4998134;28;20068;-74
2021/05/20 02:02:14;;;;;;;94.50;40.20;;;;;;;6.09;93.81;102312.34;4995497;28;20060;-75
2021/05/20 02:04:41;;;;;;;95.65;39.97;;;;;;;6.09;94.41;102315.00;4995709;28;20108;-75
2021/05/20 02:07:08;;;;;;;97.55;40.55;;;;;;;6.13;94.76;102319.44;4997256;28;20393;-74
2021/05/20 02:09:36;;;;;;;100.90;41.63;;;;;;;6.10;95.15;102316.78;4996873;28;20073;-72
2021/05/20 02:12:05;;;;;;;94.82;40.55;;;;;;;6.14;95.09;102315.94;5001498;28;20058;-71
2021/05/20 02:14:32;;;;;;;108.72;45.10;;;;;;;6.13;95.26;102319.44;4995006;28;20058;-72
2021/05/20 02:17:00;;;;;;;104.72;43.03;;;;;;;6.17;95.61;102310.69;4998919;28;20065;-72
2021/05/20 02:19:27;;;;;;;102.85;42.20;;;;;;;6.12;95.31;102313.28;4995645;28;20084;-72
2021/05/20 02:21:54;;;;;;;107.40;45.70;;;;;;;6.11;95.17;102314.16;5000327;28;20124;-72
2021/05/20 02:24:21;;;;;;;84.32;37.50;;;;;;;6.03;94.77;102309.63;4994656;28;20072;-72
2021/05/20 02:26:49;;;;;;;98.38;41.20;;;;;;;6.01;94.51;102308.72;5002345;28;20062;-72
2021/05/20 02:29:17;;;;;;;105.25;44.08;;;;;;;6.03;94.74;102309.63;5010987;28;20445;-73
2021/05/20 02:31:44;;;;;;;100.15;40.28;;;;;;;6.01;95.44;102311.38;5000569;28;20054;-72
2021/05/20 02:34:12;;;;;;;93.85;39.33;;;;;;;5.97;95.11;102313.13;4994705;28;20065;-72
2021/05/20 02:36:39;;;;;;;101.88;42.72;;;;;;;5.97;95.56;102313.13;5001221;28;20061;-72
2021/05/20 02:39:06;;;;;;;108.03;45.65;;;;;;;5.97;95.50;102307.81;4995309;28;20065;-72
2021/05/20 02:41:34;;;;;;;107.28;45.65;;;;;;;5.96;95.31;102309.59;5001791;28;20349;-72
2021/05/20 02:44:01;;;;;;;105.45;45.97;;;;;;;5.91;95.08;102299.78;4994586;28;20458;-72
2021/05/20 02:46:29;;;;;;;105.82;45.53;;;;;;;5.92;95.51;102305.06;4998140;28;20144;-72
2021/05/20 02:48:56;;;;;;;96.13;42.90;;;;;;;5.87;95.41;102305.91;4995258;28;20058;-72
2021/05/20 02:51:23;;;;;;;120.32;48.67;;;;;;;5.88;95.64;102303.28;4999595;28;20061;-72
2021/05/20 02:53:50;;;;;;;107.68;44.70;;;;;;;5.89;95.71;102302.41;4994315;28;20519;-72
2021/05/20 02:56:18;;;;;;;118.70;48.33;;;;;;;5.91;95.61;102290.06;4997546;28;20057;-72
2021/05/20 02:58:45;;;;;;;123.95;46.65;;;;;;;5.88;95.79;102295.34;4996790;28;20116;-72
2021/05/20 03:01:12;;;;;;;124.20;49.58;;;;;;;5.83;95.94;102299.69;4996288;28;20063;-72
2021/05/20 03:03:40;;;;;;;105.55;42.10;;;;;;;5.84;95.80;102298.84;4995562;28;20146;-72
2021/05/20 03:06:07;;;;;;;118.25;48.05;;;;;;;5.85;95.70;102300.59;4994690;28;20070;-72
2021/05/20 03:08:35;;;;;;;113.13;47.15;;;;;;;5.89;96.20;102299.78;4995922;28;20066;-72
2021/05/20 03:11:02;;;;;;;137.77;53.55;;;;;;;5.92;97.02;102302.44;4998091;28;20062;-72
2021/05/20 03:13:29;;;;;;;137.10;51.08;;;;;;;5.89;96.99;102296.22;4990736;28;20070;-72
2021/05/20 03:15:56;;;;;;;151.98;55.03;;;;;;;5.93;96.65;102296.25;5001549;28;20163;-74
2021/05/20 03:18:24;;;;;;;160.40;53.97;;;;;;;5.94;97.19;102297.16;4997084;28;20148;-75
2021/05/20 03:20:52;;;;;;;185.55;56.10;;;;;;;5.96;97.10;102295.47;5002581;28;20445;-73
2021/05/20 03:23:19;;;;;;;167.90;53.38;;;;;;;5.97;97.11;102300.75;4997337;28;20449;-77
2021/05/20 03:25:46;;;;;;;133.75;48.38;;;;;;;5.98;96.67;102297.22;5002884;28;20212;-75
2021/05/20 03:28:13;;;;;;;212.93;54.53;;;;;;;5.98;97.50;102293.72;4998826;28;20096;-75
2021/05/20 03:30:41;;;;;;;172.40;50.80;;;;;;;5.97;97.18;102295.44;5002234;28;20062;-74
2021/05/20 03:33:08;;;;;;;127.28;46.65;;;;;;;5.92;96.99;102281.22;4998135;28;20152;-74
2021/05/20 03:35:35;;;;;;;155.07;53.47;;;;;;;5.89;96.79;102293.56;5003059;28;20069;-74
2021/05/20 03:38:03;;;;;;;146.77;50.20;;;;;;;5.84;96.58;102298.84;5015408;28;20556;-74
2021/05/20 03:40:30;;;;;;;190.32;51.50;;;;;;;5.85;96.91;102297.06;4997869;28;20469;-74
2021/05/20 03:42:58;;;;;;;152.98;50.58;;;;;;;5.84;96.84;102296.19;5000723;28;20054;-74
2021/05/20 03:45:25;;;;;;;144.48;45.15;;;;;;;5.86;97.17;102299.72;4996923;28;20149;-74
2021/05/20 03:47:53;;;;;;;155.43;51.42;;;;;;;5.94;97.05;102307.75;5000310;28;20468;-74
2021/05/20 03:50:20;;;;;;;150.88;49.72;;;;;;;5.90;97.25;102306.81;4999038;28;20135;-74
2021/05/20 03:52:47;;;;;;;147.73;47.97;;;;;;;5.94;96.77;102307.75;4998492;28;20417;-74
2021/05/20 03:55:15;;;;;;;142.77;50.13;;;;;;;5.91;96.97;102302.44;5001622;28;20504;-72
2021/05/20 03:57:43;;;;;;;155.32;50.95;;;;;;;5.90;97.24;102300.66;5000400;28;20423;-72
2021/05/20 04:00:11;;;;;;;142.75;51.50;;;;;;;5.91;97.12;102308.63;4998286;28;20481;-71
2021/05/20 04:02:38;;;;;;;136.18;47.53;;;;;;;5.91;96.74;102305.97;4999471;28;20062;-72
2021/05/20 04:05:06;;;;;;;132.10;44.58;;;;;;;5.90;96.54;102305.94;5000131;28;20648;-73
2021/05/20 04:07:33;;;;;;;124.80;43.22;;;;;;;5.88;96.41;102300.63;5000267;28;20062;-72
2021/05/20 04:10:01;;;;;;;123.07;41.08;;;;;;;5.92;96.53;102309.50;5001428;28;20450;-71
2021/05/20 04:12:29;;;;;;;128.85;45.35;;;;;;;5.94;96.29;102307.75;4999386;28;20343;-73
2021/05/20 04:14:56;;;;;;;137.30;45.45;;;;;;;6.00;96.82;102313.16;4999090;28;20065;-73
2021/05/20 04:17:23;;;;;;;147.73;48.50;;;;;;;6.09;96.88;102305.28;4998055;28;20427;-71
2021/05/20 04:19:51;;;;;;;153.02;51.42;;;;;;;6.14;96.55;102303.56;4999726;28;20088;-71
2021/05/20 04:22:18;;;;;;;152.45;51.55;;;;;;;6.15;96.62;102297.41;4998096;28;20065;-72
2021/05/20 04:24:45;;;;;;;153.00;47.83;;;;;;;6.15;96.32;102293.88;5002035;28;20058;-72
2021/05/20 04:27:13;;;;;;;136.13;46.33;;;;;;;6.18;96.63;102293.91;4998838;28;20508;-73
2021/05/20 04:29:41;;;;;;;182.88;59.90;;;;;;;6.22;96.55;102292.16;5003336;28;20108;-71
2021/05/20 04:32:08;;;;;;;167.38;57.60;;;;;;;6.25;96.77;102289.53;4995757;28;20246;-72
2021/05/20 04:34:36;;;;;;;154.27;52.58;;;;;;;6.26;96.60;102286.00;5000229;28;20064;-72
2021/05/20 04:37:07;;;;;;;151.05;46.72;;;;;;;6.34;96.95;102287.84;4999796;28;20062;-74
2021/05/20 04:39:34;;;;;;;155.60;51.72;;;;;;;6.43;96.81;102296.75;5002414;28;20072;-72
2021/05/20 04:42:03;;;;;;;170.90;56.10;;;;;;;6.49;97.00;102292.41;4995688;28;20069;-72
2021/05/20 04:44:30;;;;;;;184.52;58.58;;;;;;;6.56;96.93;102284.50;5001821;28;20069;-72
2021/05/20 04:46:59;;;;;;;169.77;53.22;;;;;;;6.62;97.00;102285.41;4999007;28;20914;-73
2021/05/20 04:49:26;;;;;;;171.00;56.10;;;;;;;6.75;97.02;102290.81;5000710;28;20064;-72
2021/05/20 04:51:54;;;;;;;171.65;56.75;;;;;;;6.88;96.92;102284.72;5000176;28;20064;-72
2021/05/20 04:54:21;;;;;;;165.15;53.88;;;;;;;6.97;96.88;102290.06;5000661;28;20069;-72
2021/05/20 04:56:49;;;;;;;161.20;54.95;;;;;;;7.10;96.11;102283.09;4997792;28;20538;-73
2021/05/20 04:59:16;;;;;;;198.05;61.97;;;;;;;7.37;96.32;102284.06;5000438;28;20353;-72
2021/05/20 05:01:43;;;;;;;182.73;58.47;;;;;;;7.56;95.95;102287.69;4996068;28;20065;-72
2021/05/20 05:04:11;;;;;;;187.18;61.75;;;;;;;7.77;95.72;102285.09;4998835;28;20062;-73
2021/05/20 05:06:38;;;;;;;170.07;58.53;;;;;;;7.96;94.82;102280.72;4995405;28;20061;-71
2021/05/20 05:09:06;;;;;;;160.68;53.80;;;;;;;8.26;94.00;102283.41;5013138;28;20065;-71
2021/05/20 05:11:33;;;;;;;175.57;60.30;;;;;;;8.52;93.18;102275.47;4996563;28;20113;-71
2021/05/20 05:14:01;;;;;;;158.68;54.42;;;;;;;8.83;92.80;102278.97;4998028;28;20354;-72
2021/05/20 05:16:28;;;;;;;152.75;53.63;;;;;;;9.08;91.57;102286.91;4997220;28;20152;-71
2021/05/20 05:18:55;;;;;;;162.27;56.08;;;;;;;9.36;90.71;102279.69;5003748;28;20449;-71
2021/05/20 05:21:23;;;;;;;141.80;51.28;;;;;;;9.61;89.61;102285.81;4994410;28;20094;-72
2021/05/20 05:23:51;;;;;;;145.32;54.33;;;;;;;9.70;88.40;102292.88;5000937;28;20113;-72
2021/05/20 05:26:18;;;;;;;145.82;52.45;;;;;;;9.93;87.45;102287.41;4996493;28;20066;-73
2021/05/20 05:28:45;;;;;;;135.38;54.65;;;;;;;10.15;87.06;102292.56;5000880;28;20453;-72
2021/05/20 05:31:14;;;;;;;127.95;48.42;;;;;;;10.52;86.82;102284.31;4993351;28;20065;-72
2021/05/20 05:33:42;;;;;;;121.80;48.03;;;;;;;10.80;85.09;102280.50;5002831;28;20464;-72
2021/05/20 05:36:09;;;;;;;116.75;45.95;;;;;;;10.96;84.22;102286.56;4995060;28;20066;-73
2021/05/20 05:38:37;;;;;;;105.45;45.10;;;;;;;10.99;83.46;102285.66;5002562;28;20093;-71
2021/05/20 05:41:05;;;;;;;96.97;44.90;;;;;;;11.17;82.98;102285.44;4997299;28;20065;-72
2021/05/20 05:43:32;;;;;;;104.78;46.60;;;;;;;11.30;82.49;102291.50;5000096;28;20053;-72
2021/05/20 05:45:59;;;;;;;107.57;47.85;;;;;;;11.20;81.54;102282.75;4997680;28;20069;-73
2021/05/20 05:48:27;;;;;;;104.97;49.28;;;;;;;11.80;82.13;102282.84;4997123;28;20330;-73
2021/05/20 05:50:56;;;;;;;108.63;51.38;;;;;;;11.93;80.93;102282.69;4999809;28;20448;-73
2021/05/20 05:53:28;;;;;;;114.80;51.42;;;;;;;12.01;80.06;102285.25;4997965;28;20057;-73
2021/05/20 05:55:57;;;;;;;115.82;53.58;;;;;;;12.32;79.65;102279.41;4998294;28;20062;-72
2021/05/20 05:58:25;;;;;;;113.68;50.88;;;;;;;12.72;79.22;102270.72;4998693;28;20074;-72
2021/05/20 06:00:52;;;;;;;101.07;47.60;;;;;;;12.85;77.01;102274.03;4998429;28;20318;-72
2021/05/20 06:03:20;;;;;;;105.47;48.85;;;;;;;13.10;75.33;102273.56;4995529;28;20058;-73
2021/05/20 06:05:48;;;;;;;96.85;44.85;;;;;;;13.01;77.09;102275.50;4998954;28;20183;-73
2021/05/20 06:08:16;;;;;;;95.15;46.58;;;;;;;13.09;76.03;102278.03;4994636;28;20103;-71
2021/05/20 06:10:43;;;;;;;87.57;42.92;;;;;;;12.92;75.33;102278.34;4997982;28;20072;-73
2021/05/20 06:13:13;;;;;;;80.78;39.58;;;;;;;13.35;75.11;102282.91;4999131;28;20054;-71
2021/05/20 06:15:40;;;;;;;76.47;38.25;;;;;;;13.53;73.92;102289.66;4994450;28;20471;-74
2021/05/20 06:18:08;;;;;;;62.78;33.15;;;;;;;13.37;74.11;102286.44;4995370;28;20058;-73
2021/05/20 06:20:35;;;;;;;69.28;34.70;;;;;;;13.88;73.89;102288.00;4995516;28;20103;-72
2021/05/20 06:23:03;;;;;;;69.30;35.47;;;;;;;14.13;72.97;102291.00;4997245;28;20528;-73
2021/05/20 06:25:31;;;;;;;58.53;31.90;;;;;;;14.36;71.31;102286.88;4998039;28;20066;-72
2021/05/20 06:27:58;;;;;;;67.85;34.55;;;;;;;14.49;70.99;102280.28;4996390;28;20061;-72
2021/05/20 06:30:26;;;;;;;70.57;36.25;;;;;;;14.77;70.32;102273.34;4996706;28;20381;-72
2021/05/20 06:32:54;;;;;;;67.65;35.45;;;;;;;14.55;69.02;102281.91;4998883;28;20054;-72
2021/05/20 06:35:22;;;;;;;64.00;35.50;;;;;;;14.65;68.42;102271.84;4999291;28;20070;-72
2021/05/20 06:37:49;;;;;;;65.65;33.33;;;;;;;14.70;66.75;102276.16;4995727;28;20066;-72
2021/05/20 06:40:17;;;;;;;59.15;32.33;;;;;;;14.62;68.08;102283.53;4998969;28;20104;-71
2021/05/20 06:42:46;;;;;;;59.97;32.65;;;;;;;14.87;66.31;102274.84;4994216;28;20136;-72
2021/05/20 06:45:14;;;;;;;60.42;33.20;;;;;;;15.42;66.29;102278.63;5000678;28;20058;-71
2021/05/20 06:47:42;;;;;;;62.40;34.00;;;;;;;14.78;65.20;102273.28;4993405;28;20100;-71
2021/05/20 06:50:11;;;;;;;64.32;34.70;;;;;;;15.32;64.51;102277.13;4999526;28;20058;-72
2021/05/20 06:52:38;;;;;;;71.40;39.08;;;;;;;15.53;64.94;102281.03;5006186;28;20058;-71
2021/05/20 06:55:06;;;;;;;74.03;40.67;;;;;;;15.17;64.57;102275.81;4998783;28;20478;-72
2021/05/20 07:00:17;;;;;;;74.35;37.28;;;;;;;15.99;61.82;102276.94;4995488;28;20487;-72
2021/05/20 07:02:46;;;;;;;64.88;35.83;;;;;;;15.76;62.01;102279.47;4995086;28;20071;-71
2021/05/20 07:05:13;;;;;;;54.80;31.23;;;;;;;16.04;60.67;102277.66;4994566;28;20353;-72
2021/05/20 07:07:41;;;;;;;56.38;29.13;;;;;;;15.66;60.94;102270.75;4994934;28;20097;-72
2021/05/20 07:10:11;;;;;;;52.90;29.63;;;;;;;16.14;60.92;102262.09;4998436;28;20356;-71
2021/05/20 07:12:38;;;;;;;53.55;29.13;;;;;;;16.39;59.90;102263.97;4995642;28;20438;-74
2021/05/20 07:15:07;;;;;;;52.50;29.85;;;;;;;16.84;59.85;102263.34;4995509;28;20062;-72
2021/05/20 07:17:34;;;;;;;50.92;28.20;;;;;;;16.69;59.83;102258.47;4997314;28;20069;-73
2021/05/20 07:20:03;;;;;;;53.88;30.23;;;;;;;16.90;58.72;102255.00;4998173;28;21493;-73
2021/05/20 07:22:32;;;;;;;47.67;28.38;;;;;;;17.05;58.00;102255.41;4998263;28;20061;-72
2021/05/20 07:25:02;;;;;;;51.92;27.95;;;;;;;16.85;57.68;102242.66;4994243;28;20088;-73
2021/05/20 07:27:29;;;;;;;50.70;28.63;;;;;;;17.11;57.91;102239.88;4995846;28;20089;-73
2021/05/20 07:29:57;;;;;;;45.72;26.70;;;;;;;15.76;59.52;102249.88;4996363;28;20054;-73
2021/05/20 07:32:25;;;;;;;46.97;27.27;;;;;;;15.91;60.55;102240.44;4998841;28;20085;-72
2021/05/20 07:34:58;;;;;;;42.05;25.77;;;;;;;16.94;58.80;102237.81;4994201;28;20049;-72
2021/05/20 07:37:26;;;;;;;44.17;24.90;;;;;;;17.64;56.24;102238.75;4997321;28;20531;-72
2021/05/20 07:39:54;;;;;;;48.85;25.58;;;;;;;16.99;55.64;102233.13;4996811;28;20161;-72
2021/05/20 07:42:21;;;;;;;41.50;22.70;;;;;;;17.59;56.39;102223.66;4994048;28;20070;-72
2021/05/20 07:44:53;;;;;;;38.63;22.98;;;;;;;17.16;55.97;102221.72;4996983;28;20058;-73
2021/05/20 07:47:22;;;;;;;36.70;19.63;;;;;;;17.06;54.91;102227.47;4998117;28;20520;-73
2021/05/20 07:50:14;;;;;;;36.03;21.58;;;;;;;16.27;55.58;102232.94;4993775;28;20054;-73
2021/05/20 07:52:43;;;;;;;38.03;20.98;;;;;;;16.72;56.37;102231.38;4995873;28;20066;-73
2021/05/20 07:55:12;;;;;;;31.52;18.20;;;;;;;17.37;54.39;102232.63;4997490;28;20061;-74
2021/05/20 07:57:40;;;;;;;39.17;22.35;;;;;;;17.24;53.84;102220.53;4994675;28;20065;-73
2021/05/20 08:00:09;;;;;;;40.20;24.02;;;;;;;17.07;56.53;102230.13;4994367;28;20750;-73
2021/05/20 08:02:44;;;;;;;41.50;23.85;;;;;;;17.45;54.54;102230.50;4999294;28;20069;-73
2021/05/20 08:05:19;;;;;;;49.00;28.88;;;;;;;16.94;54.90;102224.31;4999281;28;20326;-73
2021/05/20 08:07:51;;;;;;;44.10;26.35;;;;;;;16.20;54.09;102234.09;4997555;28;20072;-72
2021/05/20 08:13:04;;;;;;;38.10;23.20;;;;;;;17.02;53.63;102225.84;4999316;28;20053;-72
2021/05/20 08:15:31;;;;;;;35.97;20.25;;;;;;;17.32;51.71;102216.59;4996227;28;20204;-72
2021/05/20 08:17:59;;;;;;;39.50;21.00;;;;;;;18.13;51.90;102221.50;4998373;28;20065;-73
2021/05/20 08:20:26;;;;;;;28.15;15.80;;;;;;;17.12;51.35;102209.25;4998016;28;20072;-73
2021/05/20 08:22:55;;;;;;;26.40;14.35;;;;;;;17.54;50.15;102207.66;5001321;28;20172;-73
2021/05/20 08:25:23;;;;;;;19.83;9.82;;;;;;;17.79;47.25;102204.84;4996129;28;20349;-73
2021/05/20 08:27:50;;;;;;;22.50;10.32;;;;;;;18.08;47.44;102201.00;5005284;28;20053;-72
2021/05/20 08:30:19;;;;;;;22.73;12.05;;;;;;;17.47;47.40;102201.63;4994594;28;20058;-73
2021/05/20 08:32:47;;;;;;;19.80;10.60;;;;;;;17.64;46.85;102198.25;5002974;28;20062;-72
2021/05/20 08:35:15;;;;;;;18.00;9.77;;;;;;;18.47;46.46;102191.22;4993342;28;20361;-73
2021/05/20 08:37:43;;;;;;;19.45;10.60;;;;;;;17.59;48.40;102196.66;5004690;28;20057;-73
2021/05/20 08:40:13;;;;;;;21.58;10.23;;;;;;;18.04;47.77;102196.63;4995706;28;20070;-73
2021/05/20 08:42:40;;;;;;;21.45;11.07;;;;;;;18.40;46.24;102184.31;5000838;28;20247;-73
2021/05/20 08:45:14;;;;;;;19.00;10.23;;;;;;;18.69;46.03;102185.72;4995604;28;20061;-73
2021/05/20 08:47:42;;;;;;;19.05;9.52;;;;;;;18.05;46.31;102192.13;5000812;28;20069;-73
2021/05/20 08:50:10;;;;;;;19.88;9.63;;;;;;;18.58;45.57;102188.06;4996981;28;20179;-73
2021/05/20 08:52:38;;;;;;;21.02;10.57;;;;;;;18.39;46.17;102183.47;4996990;28;20066;-72
2021/05/20 08:55:07;;;;;;;25.77;12.45;;;;;;;18.03;48.61;102194.91;4996789;28;20472;-73
2021/05/20 08:57:36;;;;;;;20.45;11.57;;;;;;;18.44;47.66;102183.25;4994972;28;20169;-72
2021/05/20 09:00:05;;;;;;;16.52;9.68;;;;;;;19.10;45.49;102177.56;4995656;28;20070;-72
2021/05/20 09:02:33;;;;;;;19.40;10.20;;;;;;;19.14;44.60;102168.38;4997993;28;20053;-73
2021/05/20 09:05:03;;;;;;;19.50;11.73;;;;;;;18.75;45.61;102173.78;4995203;28;20532;-73
2021/05/20 09:07:33;;;;;;;18.35;10.23;;;;;;;17.58;46.87;102189.53;4997648;28;20689;-73
2021/05/20 09:10:18;;;;;;;21.88;11.00;;;;;;;17.10;47.38;102176.09;4998242;28;20062;-72
2021/05/20 09:12:48;;;;;;;20.27;11.70;;;;;;;17.53;48.21;102182.47;4998419;28;20066;-72
2021/05/20 09:15:25;;;;;;;19.65;11.40;;;;;;;18.15;45.96;102171.91;5000111;28;20509;-72
2021/05/20 09:17:52;;;;;;;19.70;11.32;;;;;;;17.04;47.17;102168.22;4999876;28;20073;-73
2021/05/20 09:20:21;;;;;;;18.15;10.45;;;;;;;17.93;46.56;102161.13;4992783;28;20472;-72
2021/05/20 09:23:02;;;;;;;26.00;15.10;;;;;;;17.61;48.23;102157.91;5000182;28;20156;-72
2021/05/20 09:25:32;;;;;;;23.42;12.27;;;;;;;17.88;46.02;102152.34;4994861;28;20065;-72
2021/05/20 09:28:00;;;;;;;19.83;10.00;;;;;;;18.10;43.07;102144.22;5000375;28;20330;-72
2021/05/20 09:30:29;;;;;;;21.50;11.43;;;;;;;17.70;45.31;102156.63;4994176;28;20066;-72
2021/05/20 09:32:58;;;;;;;18.63;10.00;;;;;;;18.38;44.84;102146.56;4998630;28;20460;-72
2021/05/20 09:35:27;;;;;;;20.90;9.88;;;;;;;18.83;42.84;102152.69;4995910;28;20373;-71
2021/05/20 09:38:01;;;;;;;20.88;10.95;;;;;;;17.12;44.50;102154.47;4999931;28;20369;-72
2021/05/20 09:40:29;;;;;;;;;;;;;;;18.03;42.99;102143.59;4993180;28;20061;-71
2021/05/20 09:42:57;;;;;;;18.63;10.15;;;;;;;17.70;43.71;102145.84;5000318;28;19933;-72
2021/05/20 09:45:27;;;;;;;18.52;9.50;;;;;;;17.97;43.43;102140.28;4996350;28;20313;-72
2021/05/20 09:48:05;;;;;;;22.33;11.23;;;;;;;18.74;43.58;102143.16;5001342;28;20058;-74
2021/05/20 09:50:37;;;;;;;23.88;12.95;;;;;;;18.00;45.51;102132.03;4993721;28;20064;-72
2021/05/20 09:53:09;;;;;;;25.48;10.57;;;;;;;19.22;44.16;102130.13;5000387;28;20068;-76
2021/05/20 09:55:43;;;;;;;21.90;12.20;;;;;;;18.15;44.41;102122.38;4996107;28;20062;-73
2021/05/20 09:58:11;;;;;;;21.10;11.02;;;;;;;19.41;44.80;102124.72;4994971;28;20072;-73
2021/05/20 10:00:40;;;;;;;18.38;11.18;;;;;;;18.81;44.71;102117.59;4996135;28;20310;-73
2021/05/20 10:03:09;;;;;;;17.02;9.13;;;;;;;18.70;44.82;102116.34;4995178;28;20177;-73
2021/05/20 10:05:38;;;;;;;16.02;8.55;;;;;;;17.74;45.47;102126.75;4995487;28;20089;-73
2021/05/20 10:08:06;;;;;;;12.07;6.47;;;;;;;18.42;44.74;102122.97;4996859;28;20065;-73
2021/05/20 10:10:36;;;;;;;17.05;9.02;;;;;;;18.18;45.00;102116.84;4996300;28;20062;-73
2021/05/20 10:13:06;;;;;;;15.07;8.10;;;;;;;17.73;44.20;102121.44;4994207;28;20495;-73
2021/05/20 10:15:35;;;;;;;13.82;7.00;;;;;;;18.38;43.44;102108.72;4997257;28;20077;-73
2021/05/20 10:18:06;;;;;;;11.07;6.47;;;;;;;18.62;43.75;102103.16;4994320;28;20528;-73
2021/05/20 10:20:34;;;;;;;13.80;7.68;;;;;;;18.33;43.06;102108.06;4995975;28;20339;-73
2021/05/20 10:23:07;;;;;;;12.38;6.43;;;;;;;18.36;43.50;102098.97;4998403;28;20058;-73
2021/05/20 10:25:35;;;;;;;13.40;7.15;;;;;;;18.26;43.83;102098.47;4990897;28;20335;-72
2021/05/20 10:28:03;;;;;;;11.05;6.93;;;;;;;18.05;45.70;102090.38;4996961;28;20069;-72
2021/05/20 10:30:31;;;;;;;11.07;5.60;;;;;;;18.01;42.36;102091.44;4995185;28;20178;-73
2021/05/20 10:32:59;;;;;;;11.50;4.78;;;;;;;17.65;43.96;102100.13;4994660;28;20217;-74
2021/05/20 10:35:42;;;;;;;10.80;5.35;;;;;;;17.05;44.50;102093.63;4992979;28;20061;-72
2021/05/20 10:38:11;;;;;;;11.50;5.55;;;;;;;17.77;44.90;102082.56;4993168;28;20069;-73
2021/05/20 10:40:38;;;;;;;9.63;4.72;;;;;;;17.89;44.12;102087.47;4994995;28;20061;-72
2021/05/20 10:43:08;;;;;;;9.55;4.80;;;;;;;17.67;43.55;102079.38;4996291;28;20135;-73
2021/05/20 10:45:37;;;;;;;8.57;4.88;;;;;;;17.02;44.04;102083.81;4995906;28;20093;-73
2021/05/20 10:48:24;;;;;;;8.48;5.60;;;;;;;16.62;46.13;102082.66;4998381;28;20344;-73
2021/05/20 10:51:16;;;;;;;9.50;5.55;;;;;;;16.84;45.31;102082.75;4992274;28;20477;-72
2021/05/20 10:53:48;;;;;;;10.40;4.80;;;;;;;17.74;44.23;102061.97;4996649;28;20059;-74
2021/05/20 10:56:54;;;;;;;11.00;5.95;;;;;;;17.79;44.56;102071.69;4994439;28;20096;-74
2021/05/20 10:59:48;;;;;;;9.35;5.65;;;;;;;17.29;43.28;102071.03;5013357;28;20358;-73
2021/05/20 11:02:31;;;;;;;9.93;5.82;;;;;;;17.23;43.78;102059.63;4993647;28;20456;-74
2021/05/20 11:04:58;;;;;;;11.20;6.90;;;;;;;17.61;45.36;102051.78;4975524;28;20588;-74
2021/05/20 11:07:33;;;;;;;12.60;6.90;;;;;;;17.53;45.68;102038.59;4992567;28;20220;-73
2021/05/20 11:10:11;;;;;;;15.25;8.65;;;;;;;16.77;47.61;102048.81;4995591;28;20093;-72
2021/05/20 11:12:55;;;;;;;12.57;8.07;;;;;;;16.93;47.06;102041.94;4992835;28;20061;-72
2021/05/20 11:15:23;;;;;;;13.30;7.85;;;;;;;17.17;45.50;102036.50;4996383;28;20069;-72
2021/05/20 11:17:50;;;;;;;14.40;8.50;;;;;;;17.36;47.33;102028.50;4997166;28;20068;-73
2021/05/20 11:20:51;;;;;;;14.45;9.05;;;;;;;17.24;47.07;102020.94;4996237;28;20105;-73
2021/05/20 11:23:28;;;;;;;12.75;8.07;;;;;;;17.67;44.40;102016.41;4994074;28;20092;-72
2021/05/20 11:26:11;;;;;;;15.43;9.23;;;;;;;17.15;44.63;102012.28;4997009;28;20152;-73